sensor_id;sensor_type;location;lat;lon;timestamp;temperature;humidity
25280;DHT22;13225;47.804;12.116;2023-04-12T00:01:45;5.30;99.90
25280;DHT22;13225;47.804;12.116;2023-04-12T00:04:11;5.30;99.90
25280;DHT22;13225;47.804;12.116;2023-04-12T00:06:38;5.30;99.90
25280;DHT22;13225;47.804;12.116;2023-04-12T00:09:04;5.30;99.90
25280;DHT22;13225;47.804;12.116;2023-04-12T00:11:30;5.30;99.90
25280;DHT22;13225;47.804;12.116;2023-04-12T00:13:56;5.30;99.90
25280;DHT22;13225;47.804;12.116;2023-04-12T00:16:21;5.30;99.90
25280;DHT22;13225;47.804;12.116;2023-04-12T00:18:47;5.30;99.90
25280;DHT22;13225;47.804;12.116;2023-04-12T00:21:13;5.30;99.90
25280;DHT22;13225;47.804;12.116;2023-04-12T00:23:46;5.30;99.90
25280;DHT22;13225;47.804;12.116;2023-04-12T00:26:13;5.40;99.90
25280;DHT22;13225;47.804;12.116;2023-04-12T00:28:40;5.30;99.90
25280;DHT22;13225;47.804;12.116;2023-04-12T00:31:06;5.30;99.90
25280;DHT22;13225;47.804;12.116;2023-04-12T00:33:35;5.30;99.90
25280;DHT22;13225;47.804;12.116;2023-04-12T00:36:02;5.30;99.90
25280;DHT22;13225;47.804;12.116;2023-04-12T00:38:27;5.20;99.90
25280;DHT22;13225;47.804;12.116;2023-04-12T00:40:53;5.20;99.90
25280;DHT22;13225;47.804;12.116;2023-04-12T00:43:19;5.10;99.90
25280;DHT22;13225;47.804;12.116;2023-04-12T00:45:45;5.20;99.90
25280;DHT22;13225;47.804;12.116;2023-04-12T00:48:11;5.30;99.90
25280;DHT22;13225;47.804;12.116;2023-04-12T00:50:38;5.30;99.90
25280;DHT22;13225;47.804;12.116;2023-04-12T00:53:06;5.30;99.90
25280;DHT22;13225;47.804;12.116;2023-04-12T00:55:35;5.30;99.90
25280;DHT22;13225;47.804;12.116;2023-04-12T00:58:00;5.30;99.90
25280;DHT22;13225;47.804;12.116;2023-04-12T01:00:26;5.30;99.90
25280;DHT22;13225;47.804;12.116;2023-04-12T01:02:52;5.30;99.90
25280;DHT22;13225;47.804;12.116;2023-04-12T01:05:19;5.20;99.90
25280;DHT22;13225;47.804;12.116;2023-04-12T01:08:27;5.20;99.90
25280;DHT22;13225;47.804;12.116;2023-04-12T01:11:12;5.20;99.90
25280;DHT22;13225;47.804;12.116;2023-04-12T01:13:58;5.30;99.90
25280;DHT22;13225;47.804;12.116;2023-04-12T01:19:03;5.40;99.90
25280;DHT22;13225;47.804;12.116;2023-04-12T01:22:28;5.40;99.90
25280;DHT22;13225;47.804;12.116;2023-04-12T01:27:45;5.40;99.90
25280;DHT22;13225;47.804;12.116;2023-04-12T01:30:16;5.30;99.90
25280;DHT22;13225;47.804;12.116;2023-04-12T01:32:45;5.30;99.90
25280;DHT22;13225;47.804;12.116;2023-04-12T01:35:12;5.30;99.90
25280;DHT22;13225;47.804;12.116;2023-04-12T01:37:39;5.40;99.90
25280;DHT22;13225;47.804;12.116;2023-04-12T01:40:06;5.30;99.90
25280;DHT22;13225;47.804;12.116;2023-04-12T01:42:35;5.20;99.90
25280;DHT22;13225;47.804;12.116;2023-04-12T01:45:02;5.20;99.90
25280;DHT22;13225;47.804;12.116;2023-04-12T01:47:27;5.20;99.90
25280;DHT22;13225;47.804;12.116;2023-04-12T01:50:28;5.20;99.90
25280;DHT22;13225;47.804;12.116;2023-04-12T01:55:37;5.30;99.90
25280;DHT22;13225;47.804;12.116;2023-04-12T01:58:04;5.30;99.90
25280;DHT22;13225;47.804;12.116;2023-04-12T02:00:31;5.20;99.90
25280;DHT22;13225;47.804;12.116;2023-04-12T02:02:59;5.20;99.90
25280;DHT22;13225;47.804;12.116;2023-04-12T02:05:24;5.10;99.90
25280;DHT22;13225;47.804;12.116;2023-04-12T02:07:50;5.10;99.90
25280;DHT22;13225;47.804;12.116;2023-04-12T02:10:27;5.20;99.90
25280;DHT22;13225;47.804;12.116;2023-04-12T02:12:52;5.10;99.90
25280;DHT22;13225;47.804;12.116;2023-04-12T02:15:18;5.20;99.90
25280;DHT22;13225;47.804;12.116;2023-04-12T02:17:45;5.20;99.90
25280;DHT22;13225;47.804;12.116;2023-04-12T02:20:11;5.20;99.90
25280;DHT22;13225;47.804;12.116;2023-04-12T02:22:37;5.10;99.90
25280;DHT22;13225;47.804;12.116;2023-04-12T02:25:03;5.10;99.90
25280;DHT22;13225;47.804;12.116;2023-04-12T02:27:30;5.00;99.90
25280;DHT22;13225;47.804;12.116;2023-04-12T02:29:56;5.10;99.90
25280;DHT22;13225;47.804;12.116;2023-04-12T02:32:23;5.10;99.90
25280;DHT22;13225;47.804;12.116;2023-04-12T02:34:49;5.10;99.90
25280;DHT22;13225;47.804;12.116;2023-04-12T02:37:17;5.00;99.90
25280;DHT22;13225;47.804;12.116;2023-04-12T02:39:42;5.10;99.90
25280;DHT22;13225;47.804;12.116;2023-04-12T02:42:09;5.10;99.90
25280;DHT22;13225;47.804;12.116;2023-04-12T02:44:34;5.10;99.90
25280;DHT22;13225;47.804;12.116;2023-04-12T02:47:00;5.10;99.90
25280;DHT22;13225;47.804;12.116;2023-04-12T02:49:26;5.10;99.90
25280;DHT22;13225;47.804;12.116;2023-04-12T02:51:51;5.10;99.90
25280;DHT22;13225;47.804;12.116;2023-04-12T02:54:17;5.00;99.90
25280;DHT22;13225;47.804;12.116;2023-04-12T02:56:43;5.00;99.90
25280;DHT22;13225;47.804;12.116;2023-04-12T02:59:08;5.00;99.90
25280;DHT22;13225;47.804;12.116;2023-04-12T03:01:34;5.00;99.90
25280;DHT22;13225;47.804;12.116;2023-04-12T03:04:00;5.00;99.90
25280;DHT22;13225;47.804;12.116;2023-04-12T03:06:26;5.00;99.90
25280;DHT22;13225;47.804;12.116;2023-04-12T03:08:52;5.00;99.90
25280;DHT22;13225;47.804;12.116;2023-04-12T03:11:17;5.00;99.90
25280;DHT22;13225;47.804;12.116;2023-04-12T03:13:43;4.90;99.90
25280;DHT22;13225;47.804;12.116;2023-04-12T03:16:25;4.90;99.90
25280;DHT22;13225;47.804;12.116;2023-04-12T03:18:54;5.00;99.90
25280;DHT22;13225;47.804;12.116;2023-04-12T03:21:21;4.90;99.90
25280;DHT22;13225;47.804;12.116;2023-04-12T03:23:46;4.90;99.90
25280;DHT22;13225;47.804;12.116;2023-04-12T03:26:12;4.80;99.90
25280;DHT22;13225;47.804;12.116;2023-04-12T03:28:39;4.80;99.90
25280;DHT22;13225;47.804;12.116;2023-04-12T03:31:06;4.80;99.90
25280;DHT22;13225;47.804;12.116;2023-04-12T03:33:31;4.80;99.90
25280;DHT22;13225;47.804;12.116;2023-04-12T03:35:57;4.90;99.90
25280;DHT22;13225;47.804;12.116;2023-04-12T03:38:22;4.80;99.90
25280;DHT22;13225;47.804;12.116;2023-04-12T03:40:48;4.90;99.90
25280;DHT22;13225;47.804;12.116;2023-04-12T03:43:14;4.90;99.90
25280;DHT22;13225;47.804;12.116;2023-04-12T03:45:39;4.90;99.90
25280;DHT22;13225;47.804;12.116;2023-04-12T03:48:05;4.90;99.90
25280;DHT22;13225;47.804;12.116;2023-04-12T03:50:31;4.90;99.90
25280;DHT22;13225;47.804;12.116;2023-04-12T03:53:10;4.90;99.90
25280;DHT22;13225;47.804;12.116;2023-04-12T03:55:35;5.00;99.90
25280;DHT22;13225;47.804;12.116;2023-04-12T03:58:02;5.00;99.90
25280;DHT22;13225;47.804;12.116;2023-04-12T04:00:27;5.00;99.90
25280;DHT22;13225;47.804;12.116;2023-04-12T04:02:56;5.00;99.90
25280;DHT22;13225;47.804;12.116;2023-04-12T04:05:28;5.10;99.90
25280;DHT22;13225;47.804;12.116;2023-04-12T04:07:55;5.10;99.90
25280;DHT22;13225;47.804;12.116;2023-04-12T04:10:21;5.00;99.90
25280;DHT22;13225;47.804;12.116;2023-04-12T04:12:46;4.90;99.90
25280;DHT22;13225;47.804;12.116;2023-04-12T04:15:13;4.90;99.90
25280;DHT22;13225;47.804;12.116;2023-04-12T04:17:39;4.90;99.90
25280;DHT22;13225;47.804;12.116;2023-04-12T04:20:05;4.90;99.90
25280;DHT22;13225;47.804;12.116;2023-04-12T04:22:33;5.00;99.90
25280;DHT22;13225;47.804;12.116;2023-04-12T04:24:58;5.00;99.90
25280;DHT22;13225;47.804;12.116;2023-04-12T04:27:25;5.10;99.90
25280;DHT22;13225;47.804;12.116;2023-04-12T04:29:54;5.10;99.90
25280;DHT22;13225;47.804;12.116;2023-04-12T04:32:24;5.10;99.90
25280;DHT22;13225;47.804;12.116;2023-04-12T04:34:49;5.10;99.90
25280;DHT22;13225;47.804;12.116;2023-04-12T04:37:15;5.10;99.90
25280;DHT22;13225;47.804;12.116;2023-04-12T04:39:43;5.10;99.90
25280;DHT22;13225;47.804;12.116;2023-04-12T04:42:08;5.10;99.90
25280;DHT22;13225;47.804;12.116;2023-04-12T04:44:35;5.10;99.90
25280;DHT22;13225;47.804;12.116;2023-04-12T04:47:01;5.10;99.90
25280;DHT22;13225;47.804;12.116;2023-04-12T04:49:27;5.10;99.90
25280;DHT22;13225;47.804;12.116;2023-04-12T04:51:53;5.10;99.90
25280;DHT22;13225;47.804;12.116;2023-04-12T04:54:21;5.10;99.90
25280;DHT22;13225;47.804;12.116;2023-04-12T04:56:46;5.20;99.90
25280;DHT22;13225;47.804;12.116;2023-04-12T04:59:12;5.20;99.90
25280;DHT22;13225;47.804;12.116;2023-04-12T05:01:38;5.20;99.90
25280;DHT22;13225;47.804;12.116;2023-04-12T05:04:05;5.10;99.90
25280;DHT22;13225;47.804;12.116;2023-04-12T05:06:31;5.10;99.90
25280;DHT22;13225;47.804;12.116;2023-04-12T05:08:56;5.00;99.90
25280;DHT22;13225;47.804;12.116;2023-04-12T05:11:22;5.00;99.90
25280;DHT22;13225;47.804;12.116;2023-04-12T05:13:48;5.10;99.90
25280;DHT22;13225;47.804;12.116;2023-04-12T05:16:13;5.00;99.90
25280;DHT22;13225;47.804;12.116;2023-04-12T05:18:39;5.10;99.90
25280;DHT22;13225;47.804;12.116;2023-04-12T05:21:05;5.10;99.90
25280;DHT22;13225;47.804;12.116;2023-04-12T05:23:44;5.10;99.90
25280;DHT22;13225;47.804;12.116;2023-04-12T05:26:10;5.10;99.90
25280;DHT22;13225;47.804;12.116;2023-04-12T05:28:36;5.10;99.90
25280;DHT22;13225;47.804;12.116;2023-04-12T05:31:01;5.20;99.90
25280;DHT22;13225;47.804;12.116;2023-04-12T05:33:27;5.30;99.90
25280;DHT22;13225;47.804;12.116;2023-04-12T05:35:52;5.30;99.90
25280;DHT22;13225;47.804;12.116;2023-04-12T05:38:18;5.40;99.90
25280;DHT22;13225;47.804;12.116;2023-04-12T05:40:45;5.40;99.90
25280;DHT22;13225;47.804;12.116;2023-04-12T05:43:10;5.50;99.90
25280;DHT22;13225;47.804;12.116;2023-04-12T05:45:38;5.50;99.90
25280;DHT22;13225;47.804;12.116;2023-04-12T05:48:03;5.60;99.90
25280;DHT22;13225;47.804;12.116;2023-04-12T05:50:29;5.70;99.90
25280;DHT22;13225;47.804;12.116;2023-04-12T05:52:55;5.80;99.90
25280;DHT22;13225;47.804;12.116;2023-04-12T05:55:20;5.90;99.90
25280;DHT22;13225;47.804;12.116;2023-04-12T05:57:46;6.00;99.90
25280;DHT22;13225;47.804;12.116;2023-04-12T06:00:13;6.10;99.90
25280;DHT22;13225;47.804;12.116;2023-04-12T06:02:44;6.20;99.90
25280;DHT22;13225;47.804;12.116;2023-04-12T06:05:10;6.30;99.90
25280;DHT22;13225;47.804;12.116;2023-04-12T06:07:40;6.40;99.90
25280;DHT22;13225;47.804;12.116;2023-04-12T06:10:14;6.40;99.90
25280;DHT22;13225;47.804;12.116;2023-04-12T06:12:41;6.40;99.90
25280;DHT22;13225;47.804;12.116;2023-04-12T06:15:07;6.40;99.90
25280;DHT22;13225;47.804;12.116;2023-04-12T06:17:33;6.30;99.90
25280;DHT22;13225;47.804;12.116;2023-04-12T06:19:59;6.30;99.90
25280;DHT22;13225;47.804;12.116;2023-04-12T06:22:24;6.40;99.90
25280;DHT22;13225;47.804;12.116;2023-04-12T06:24:50;6.40;99.90
25280;DHT22;13225;47.804;12.116;2023-04-12T06:27:15;6.50;99.90
25280;DHT22;13225;47.804;12.116;2023-04-12T06:29:41;6.60;99.90
25280;DHT22;13225;47.804;12.116;2023-04-12T06:32:06;6.60;99.90
25280;DHT22;13225;47.804;12.116;2023-04-12T06:34:32;6.70;99.90
25280;DHT22;13225;47.804;12.116;2023-04-12T06:36:58;6.60;99.90
25280;DHT22;13225;47.804;12.116;2023-04-12T06:39:24;6.70;99.90
25280;DHT22;13225;47.804;12.116;2023-04-12T06:41:49;6.70;99.90
25280;DHT22;13225;47.804;12.116;2023-04-12T06:44:15;6.80;99.90
25280;DHT22;13225;47.804;12.116;2023-04-12T06:46:41;6.80;99.90
25280;DHT22;13225;47.804;12.116;2023-04-12T06:49:07;7.00;99.90
25280;DHT22;13225;47.804;12.116;2023-04-12T06:51:32;7.10;99.90
25280;DHT22;13225;47.804;12.116;2023-04-12T06:53:59;7.20;99.90
25280;DHT22;13225;47.804;12.116;2023-04-12T06:56:25;7.20;99.90
25280;DHT22;13225;47.804;12.116;2023-04-12T06:58:51;7.30;99.90
25280;DHT22;13225;47.804;12.116;2023-04-12T07:01:16;7.30;99.90
25280;DHT22;13225;47.804;12.116;2023-04-12T07:03:42;7.30;99.90
25280;DHT22;13225;47.804;12.116;2023-04-12T07:06:07;7.30;99.90
25280;DHT22;13225;47.804;12.116;2023-04-12T07:08:34;7.30;99.90
25280;DHT22;13225;47.804;12.116;2023-04-12T07:11:00;7.40;99.90
25280;DHT22;13225;47.804;12.116;2023-04-12T07:13:27;7.60;99.90
25280;DHT22;13225;47.804;12.116;2023-04-12T07:15:52;7.60;99.90
25280;DHT22;13225;47.804;12.116;2023-04-12T07:18:21;7.80;99.90
25280;DHT22;13225;47.804;12.116;2023-04-12T07:20:53;7.80;99.90
25280;DHT22;13225;47.804;12.116;2023-04-12T07:23:19;8.00;99.90
25280;DHT22;13225;47.804;12.116;2023-04-12T07:25:44;7.90;99.90
25280;DHT22;13225;47.804;12.116;2023-04-12T07:28:10;8.00;99.90
25280;DHT22;13225;47.804;12.116;2023-04-12T07:30:38;8.20;99.90
25280;DHT22;13225;47.804;12.116;2023-04-12T07:33:03;8.10;99.90
25280;DHT22;13225;47.804;12.116;2023-04-12T07:35:30;8.10;99.90
25280;DHT22;13225;47.804;12.116;2023-04-12T07:37:56;8.10;99.90
25280;DHT22;13225;47.804;12.116;2023-04-12T07:40:22;8.10;99.90
25280;DHT22;13225;47.804;12.116;2023-04-12T07:42:48;7.90;99.90
25280;DHT22;13225;47.804;12.116;2023-04-12T07:45:14;8.00;99.90
25280;DHT22;13225;47.804;12.116;2023-04-12T07:47:39;8.00;99.90
25280;DHT22;13225;47.804;12.116;2023-04-12T07:50:05;8.00;99.90
25280;DHT22;13225;47.804;12.116;2023-04-12T07:52:31;8.10;99.90
25280;DHT22;13225;47.804;12.116;2023-04-12T07:54:57;8.00;99.90
25280;DHT22;13225;47.804;12.116;2023-04-12T07:57:23;8.20;99.90
25280;DHT22;13225;47.804;12.116;2023-04-12T07:59:49;7.90;99.90
25280;DHT22;13225;47.804;12.116;2023-04-12T08:02:14;8.10;99.90
25280;DHT22;13225;47.804;12.116;2023-04-12T08:04:50;8.20;99.90
25280;DHT22;13225;47.804;12.116;2023-04-12T08:07:16;8.30;99.90
25280;DHT22;13225;47.804;12.116;2023-04-12T08:09:41;8.50;99.90
25280;DHT22;13225;47.804;12.116;2023-04-12T08:12:07;8.40;99.90
25280;DHT22;13225;47.804;12.116;2023-04-12T08:14:33;8.50;99.90
25280;DHT22;13225;47.804;12.116;2023-04-12T08:16:58;8.50;99.90
25280;DHT22;13225;47.804;12.116;2023-04-12T08:19:24;8.40;99.90
25280;DHT22;13225;47.804;12.116;2023-04-12T08:21:49;8.50;99.90
25280;DHT22;13225;47.804;12.116;2023-04-12T08:24:15;8.50;99.90
25280;DHT22;13225;47.804;12.116;2023-04-12T08:26:41;8.50;99.90
25280;DHT22;13225;47.804;12.116;2023-04-12T08:29:06;8.70;99.90
25280;DHT22;13225;47.804;12.116;2023-04-12T08:31:32;9.00;99.90
25280;DHT22;13225;47.804;12.116;2023-04-12T08:33:58;9.20;99.90
25280;DHT22;13225;47.804;12.116;2023-04-12T08:36:24;9.00;99.90
25280;DHT22;13225;47.804;12.116;2023-04-12T08:38:51;9.30;99.90
25280;DHT22;13225;47.804;12.116;2023-04-12T08:41:19;9.30;99.90
25280;DHT22;13225;47.804;12.116;2023-04-12T08:43:46;9.00;99.90
25280;DHT22;13225;47.804;12.116;2023-04-12T08:46:15;9.20;99.90
25280;DHT22;13225;47.804;12.116;2023-04-12T08:48:44;9.40;99.90
25280;DHT22;13225;47.804;12.116;2023-04-12T08:51:13;9.40;99.90
25280;DHT22;13225;47.804;12.116;2023-04-12T08:53:39;9.50;99.90
25280;DHT22;13225;47.804;12.116;2023-04-12T08:56:07;9.50;99.90
25280;DHT22;13225;47.804;12.116;2023-04-12T08:58:33;9.50;99.90
25280;DHT22;13225;47.804;12.116;2023-04-12T09:01:01;9.50;99.90
25280;DHT22;13225;47.804;12.116;2023-04-12T09:03:27;9.30;99.90
25280;DHT22;13225;47.804;12.116;2023-04-12T09:05:54;9.40;99.90
25280;DHT22;13225;47.804;12.116;2023-04-12T09:08:19;9.40;99.90
25280;DHT22;13225;47.804;12.116;2023-04-12T09:10:45;9.20;99.90
25280;DHT22;13225;47.804;12.116;2023-04-12T09:13:10;9.10;99.90
25280;DHT22;13225;47.804;12.116;2023-04-12T09:15:49;9.10;99.90
25280;DHT22;13225;47.804;12.116;2023-04-12T09:18:15;9.10;99.90
25280;DHT22;13225;47.804;12.116;2023-04-12T09:20:40;9.10;99.90
25280;DHT22;13225;47.804;12.116;2023-04-12T09:23:20;8.90;99.90
25280;DHT22;13225;47.804;12.116;2023-04-12T09:25:47;9.00;99.90
25280;DHT22;13225;47.804;12.116;2023-04-12T09:30:44;8.90;99.90
25280;DHT22;13225;47.804;12.116;2023-04-12T09:33:12;9.00;99.90
25280;DHT22;13225;47.804;12.116;2023-04-12T09:35:38;9.10;99.90
25280;DHT22;13225;47.804;12.116;2023-04-12T09:38:10;9.40;99.90
25280;DHT22;13225;47.804;12.116;2023-04-12T09:40:36;9.30;99.90
25280;DHT22;13225;47.804;12.116;2023-04-12T09:43:02;9.60;99.90
25280;DHT22;13225;47.804;12.116;2023-04-12T09:45:30;9.80;99.90
25280;DHT22;13225;47.804;12.116;2023-04-12T09:47:56;9.70;99.90
25280;DHT22;13225;47.804;12.116;2023-04-12T09:50:26;9.90;99.90
25280;DHT22;13225;47.804;12.116;2023-04-12T09:52:53;10.20;99.90
25280;DHT22;13225;47.804;12.116;2023-04-12T09:55:21;10.20;99.90
25280;DHT22;13225;47.804;12.116;2023-04-12T09:57:49;10.30;99.90
25280;DHT22;13225;47.804;12.116;2023-04-12T10:00:15;10.50;99.90
25280;DHT22;13225;47.804;12.116;2023-04-12T10:02:43;10.50;99.90
25280;DHT22;13225;47.804;12.116;2023-04-12T10:05:10;10.70;99.90
25280;DHT22;13225;47.804;12.116;2023-04-12T10:07:39;10.60;99.90
25280;DHT22;13225;47.804;12.116;2023-04-12T10:10:10;10.50;99.90
25280;DHT22;13225;47.804;12.116;2023-04-12T10:12:40;10.80;99.90
25280;DHT22;13225;47.804;12.116;2023-04-12T10:15:11;11.00;99.90
25280;DHT22;13225;47.804;12.116;2023-04-12T10:17:46;11.20;99.90
25280;DHT22;13225;47.804;12.116;2023-04-12T10:20:13;11.10;99.90
25280;DHT22;13225;47.804;12.116;2023-04-12T10:22:57;11.30;99.90
25280;DHT22;13225;47.804;12.116;2023-04-12T10:25:25;11.40;99.90
25280;DHT22;13225;47.804;12.116;2023-04-12T10:27:52;11.50;99.90
25280;DHT22;13225;47.804;12.116;2023-04-12T10:30:26;11.10;99.90
25280;DHT22;13225;47.804;12.116;2023-04-12T10:35:58;11.40;99.90
25280;DHT22;13225;47.804;12.116;2023-04-12T10:38:28;11.50;99.90
25280;DHT22;13225;47.804;12.116;2023-04-12T10:41:21;11.40;99.90
25280;DHT22;13225;47.804;12.116;2023-04-12T10:43:48;11.20;99.90
25280;DHT22;13225;47.804;12.116;2023-04-12T10:49:08;11.30;99.90
25280;DHT22;13225;47.804;12.116;2023-04-12T10:51:34;11.20;99.90
25280;DHT22;13225;47.804;12.116;2023-04-12T10:58:59;11.60;99.90
25280;DHT22;13225;47.804;12.116;2023-04-12T11:01:26;11.70;99.90
25280;DHT22;13225;47.804;12.116;2023-04-12T11:04:09;11.80;99.90
25280;DHT22;13225;47.804;12.116;2023-04-12T11:19:41;13.10;99.90
25280;DHT22;13225;47.804;12.116;2023-04-12T11:22:13;13.30;99.90
25280;DHT22;13225;47.804;12.116;2023-04-12T11:24:43;13.40;99.90
25280;DHT22;13225;47.804;12.116;2023-04-12T11:27:09;13.80;99.90
25280;DHT22;13225;47.804;12.116;2023-04-12T11:29:35;14.30;99.90
25280;DHT22;13225;47.804;12.116;2023-04-12T11:32:05;14.60;99.90
25280;DHT22;13225;47.804;12.116;2023-04-12T11:34:35;15.00;99.90
25280;DHT22;13225;47.804;12.116;2023-04-12T11:37:02;15.10;99.90
25280;DHT22;13225;47.804;12.116;2023-04-12T11:39:30;14.90;99.90
25280;DHT22;13225;47.804;12.116;2023-04-12T11:41:56;15.20;99.90
25280;DHT22;13225;47.804;12.116;2023-04-12T11:44:22;14.70;99.90
25280;DHT22;13225;47.804;12.116;2023-04-12T11:46:48;14.60;99.90
25280;DHT22;13225;47.804;12.116;2023-04-12T11:49:19;14.80;99.90
25280;DHT22;13225;47.804;12.116;2023-04-12T11:51:45;15.30;99.90
25280;DHT22;13225;47.804;12.116;2023-04-12T11:54:11;15.50;99.90
25280;DHT22;13225;47.804;12.116;2023-04-12T11:56:37;15.90;99.90
25280;DHT22;13225;47.804;12.116;2023-04-12T11:59:04;15.70;99.90
25280;DHT22;13225;47.804;12.116;2023-04-12T12:01:30;15.50;99.90
25280;DHT22;13225;47.804;12.116;2023-04-12T12:03:59;15.30;99.90
25280;DHT22;13225;47.804;12.116;2023-04-12T12:06:25;15.30;99.90
25280;DHT22;13225;47.804;12.116;2023-04-12T12:08:52;15.70;99.90
25280;DHT22;13225;47.804;12.116;2023-04-12T12:11:22;15.40;99.90
25280;DHT22;13225;47.804;12.116;2023-04-12T12:13:53;15.10;99.90
25280;DHT22;13225;47.804;12.116;2023-04-12T12:16:27;15.10;99.90
25280;DHT22;13225;47.804;12.116;2023-04-12T12:18:53;15.20;99.90
25280;DHT22;13225;47.804;12.116;2023-04-12T12:21:19;14.90;99.90
25280;DHT22;13225;47.804;12.116;2023-04-12T12:23:46;14.90;99.90
25280;DHT22;13225;47.804;12.116;2023-04-12T12:26:21;15.30;99.90
25280;DHT22;13225;47.804;12.116;2023-04-12T12:28:54;15.40;99.90
25280;DHT22;13225;47.804;12.116;2023-04-12T12:31:22;15.60;99.90
25280;DHT22;13225;47.804;12.116;2023-04-12T12:33:52;15.50;99.90
25280;DHT22;13225;47.804;12.116;2023-04-12T12:36:18;15.10;99.90
25280;DHT22;13225;47.804;12.116;2023-04-12T12:38:47;14.90;99.90
25280;DHT22;13225;47.804;12.116;2023-04-12T12:41:22;15.00;99.90
25280;DHT22;13225;47.804;12.116;2023-04-12T12:43:50;14.30;99.90
25280;DHT22;13225;47.804;12.116;2023-04-12T12:46:17;14.10;99.90
25280;DHT22;13225;47.804;12.116;2023-04-12T12:48:44;14.50;99.90
25280;DHT22;13225;47.804;12.116;2023-04-12T12:51:11;14.70;99.90
25280;DHT22;13225;47.804;12.116;2023-04-12T12:53:38;14.90;99.90
25280;DHT22;13225;47.804;12.116;2023-04-12T12:56:04;14.80;99.90
25280;DHT22;13225;47.804;12.116;2023-04-12T12:58:30;14.80;99.90
25280;DHT22;13225;47.804;12.116;2023-04-12T13:00:56;14.50;99.90
25280;DHT22;13225;47.804;12.116;2023-04-12T13:03:22;14.40;99.90
25280;DHT22;13225;47.804;12.116;2023-04-12T13:05:49;14.40;99.90
25280;DHT22;13225;47.804;12.116;2023-04-12T13:08:14;14.60;99.90
25280;DHT22;13225;47.804;12.116;2023-04-12T13:10:40;14.80;99.90
25280;DHT22;13225;47.804;12.116;2023-04-12T13:13:06;15.10;99.90
25280;DHT22;13225;47.804;12.116;2023-04-12T13:15:31;15.10;99.90
25280;DHT22;13225;47.804;12.116;2023-04-12T13:17:57;15.20;99.90
25280;DHT22;13225;47.804;12.116;2023-04-12T13:20:22;15.20;99.90
25280;DHT22;13225;47.804;12.116;2023-04-12T13:22:49;15.50;99.90
25280;DHT22;13225;47.804;12.116;2023-04-12T13:25:16;15.60;99.90
25280;DHT22;13225;47.804;12.116;2023-04-12T13:27:44;15.50;99.90
25280;DHT22;13225;47.804;12.116;2023-04-12T13:30:10;15.50;99.90
25280;DHT22;13225;47.804;12.116;2023-04-12T13:32:36;15.70;99.90
25280;DHT22;13225;47.804;12.116;2023-04-12T13:35:03;15.70;99.90
25280;DHT22;13225;47.804;12.116;2023-04-12T13:37:28;15.60;99.90
25280;DHT22;13225;47.804;12.116;2023-04-12T13:39:54;15.90;99.90
25280;DHT22;13225;47.804;12.116;2023-04-12T13:42:19;16.40;99.90
25280;DHT22;13225;47.804;12.116;2023-04-12T13:44:46;16.50;99.90
25280;DHT22;13225;47.804;12.116;2023-04-12T13:47:13;16.40;99.90
25280;DHT22;13225;47.804;12.116;2023-04-12T13:49:39;16.40;99.90
25280;DHT22;13225;47.804;12.116;2023-04-12T13:52:05;16.80;99.90
25280;DHT22;13225;47.804;12.116;2023-04-12T13:54:31;17.10;99.90
25280;DHT22;13225;47.804;12.116;2023-04-12T13:56:57;16.90;99.90
25280;DHT22;13225;47.804;12.116;2023-04-12T13:59:24;17.10;99.90
25280;DHT22;13225;47.804;12.116;2023-04-12T14:01:50;17.20;99.90
25280;DHT22;13225;47.804;12.116;2023-04-12T14:04:17;17.20;99.90
25280;DHT22;13225;47.804;12.116;2023-04-12T14:06:42;17.50;99.90
25280;DHT22;13225;47.804;12.116;2023-04-12T14:09:42;18.00;99.90
25280;DHT22;13225;47.804;12.116;2023-04-12T14:12:01;18.20;99.90
25280;DHT22;13225;47.804;12.116;2023-04-12T14:14:27;17.80;99.90
25280;DHT22;13225;47.804;12.116;2023-04-12T14:16:53;17.40;99.90
25280;DHT22;13225;47.804;12.116;2023-04-12T14:19:22;17.10;99.90
25280;DHT22;13225;47.804;12.116;2023-04-12T14:21:48;17.20;99.90
25280;DHT22;13225;47.804;12.116;2023-04-12T14:24:15;16.60;99.90
25280;DHT22;13225;47.804;12.116;2023-04-12T14:26:41;15.80;99.90
25280;DHT22;13225;47.804;12.116;2023-04-12T14:29:06;15.50;99.90
25280;DHT22;13225;47.804;12.116;2023-04-12T14:31:33;15.70;99.90
25280;DHT22;13225;47.804;12.116;2023-04-12T14:34:03;16.10;99.90
25280;DHT22;13225;47.804;12.116;2023-04-12T14:36:29;16.20;99.90
25280;DHT22;13225;47.804;12.116;2023-04-12T14:38:56;16.10;99.90
25280;DHT22;13225;47.804;12.116;2023-04-12T14:41:21;16.60;99.90
25280;DHT22;13225;47.804;12.116;2023-04-12T14:43:47;16.90;99.90
25280;DHT22;13225;47.804;12.116;2023-04-12T14:46:15;17.20;99.90
25280;DHT22;13225;47.804;12.116;2023-04-12T14:48:41;17.80;99.90
25280;DHT22;13225;47.804;12.116;2023-04-12T14:51:06;18.40;99.90
25280;DHT22;13225;47.804;12.116;2023-04-12T14:53:32;18.30;99.90
25280;DHT22;13225;47.804;12.116;2023-04-12T14:55:58;17.90;99.90
25280;DHT22;13225;47.804;12.116;2023-04-12T14:58:29;17.80;99.90
25280;DHT22;13225;47.804;12.116;2023-04-12T15:00:56;17.60;99.90
25280;DHT22;13225;47.804;12.116;2023-04-12T15:03:22;17.40;99.90
25280;DHT22;13225;47.804;12.116;2023-04-12T15:05:48;17.50;99.90
25280;DHT22;13225;47.804;12.116;2023-04-12T15:08:14;17.20;99.90
25280;DHT22;13225;47.804;12.116;2023-04-12T15:10:40;17.10;99.90
25280;DHT22;13225;47.804;12.116;2023-04-12T15:13:05;17.20;99.90
25280;DHT22;13225;47.804;12.116;2023-04-12T15:15:32;18.00;99.90
25280;DHT22;13225;47.804;12.116;2023-04-12T15:17:57;18.00;99.90
25280;DHT22;13225;47.804;12.116;2023-04-12T15:20:23;17.90;99.90
25280;DHT22;13225;47.804;12.116;2023-04-12T15:22:49;18.20;99.90
25280;DHT22;13225;47.804;12.116;2023-04-12T15:25:14;18.30;99.90
25280;DHT22;13225;47.804;12.116;2023-04-12T15:27:40;18.30;99.90
25280;DHT22;13225;47.804;12.116;2023-04-12T15:30:08;19.10;99.90
25280;DHT22;13225;47.804;12.116;2023-04-12T15:32:35;20.20;99.90
25280;DHT22;13225;47.804;12.116;2023-04-12T15:35:06;19.60;99.90
25280;DHT22;13225;47.804;12.116;2023-04-12T15:37:32;18.90;99.90
25280;DHT22;13225;47.804;12.116;2023-04-12T15:40:02;19.20;99.90
25280;DHT22;13225;47.804;12.116;2023-04-12T15:42:40;18.80;99.90
25280;DHT22;13225;47.804;12.116;2023-04-12T15:45:08;17.70;99.90
25280;DHT22;13225;47.804;12.116;2023-04-12T15:47:34;17.70;99.90
25280;DHT22;13225;47.804;12.116;2023-04-12T15:49:59;17.40;99.90
25280;DHT22;13225;47.804;12.116;2023-04-12T15:52:25;17.00;99.90
25280;DHT22;13225;47.804;12.116;2023-04-12T15:54:51;16.70;99.90
25280;DHT22;13225;47.804;12.116;2023-04-12T15:57:16;16.20;99.90
25280;DHT22;13225;47.804;12.116;2023-04-12T15:59:42;16.10;99.90
25280;DHT22;13225;47.804;12.116;2023-04-12T16:02:08;16.00;99.90